Airfield :







YOU CAN JOIN US ON...

 
LOGIN :

Register | Disclaimer

   EN    FR    IT 

 









Legend :    VFR   Marginal VFR   IFR   Intensive IFR   Very Intensive IFR
Visi :
Ceiling :
>= 8 km
>= 3000ft
5 to 8 km
1000 to 3000 ft
1500m to 5 km
500 to 1000 ft
800 to 1500m
200 to 500 ft
< 800m
< 200 ft
Symbols :   Thunderstorms  Fog  Heavy snow  Heavy precipitations  Wind > 20 kt







- Airport Elevation : 215 ft
- IATA code : XGR


CYLU - Kangiqsualujjuaq (Georges River)

CURRENT METAR :
  • 221445Z 27011G20KT 230V300 2SM -SN BLSN SCT012 BKN020 OVC026 M12/M14 A3014 RMK SC3SC3SC2 SLP214

EXPIRED METARs :
  • 221400Z 29014G20KT 3SM -SN DRSN FEW012 BKN016 BKN020 OVC023 M11/M14 A3011 RMK SC2SC3SC2SC1 VIS VRB 2-5 SLP205
  • 221300Z 30013G20KT 5SM -SN DRSN SCT014 BKN020 OVC024 M11/M14 A3009 RMK SC3SC3SC2 SLP196
  • 221200Z 28020KT 5SM -SN DRSN FEW012 SCT015 OVC017 M11/M14 A3005 RMK SC2SC2SC4 SLP183

TAF N/A
CZUL FIR / North America



MET'MAP, your aeronautical weather chart ! - Copyright ORBIFLY December 2007 - Disclaimer

ORBIFLY MET'MAP TEAM :

Programming & Development : Alexandra Zaïnal
Concept & Development : Baudouin d'Aumeries
Co-Development & Prog : Marc-Olivier Méhu
Technical & hardware support : Manuel Goepfert

Contact : metmap@orbifly.com




SOURCES & CREDITS :

   NOAA